Weather at Sundre Airport

Public forecast

Using degrees Celsius for public forecast. Weather courtesy of forecast.io.

Closest aviation weather report (METAR) to Sundre Airport

Closest report is Red Deer Regional Airport, 37.9 nm (70.2 km) NE.

2024/02/29 14:00 (retrieved 48 minutes ago)

CYQF 291400Z AUTO 18008KT 9SM CLR M04/M07 A2904 RMK SLP885

Closest aviation forecast (TAF) to Sundre Airport

Closest forecast is Red Deer Regional Airport, 37.9 nm (70.2 km) NE.

2024/02/29 12:42 (retrieved 2 hours ago)

TAF CYQF 291141Z 2912/2924 16012G22KT P6SM SCT220 BECMG 2914/2916 VRB03KT BECMG 2917/2919 30015G25KT FM292100 33014G24KT 6SM -SN OVC020 TEMPO 2921/2924 2SM -SHSN RMK FCST BASED ON AUTO OBS NXT FCST BY 291800Z